Time;durP1;ratioP1;P1;durP2;ratioP2;P2;SDS_P1;SDS_P2;PMS_P1;PMS_P2;Temp;Humidity;BMP_temperature;BMP_pressure;BME280_temperature;BME280_humidity;BME280_pressure;Samples;Min_cycle;Max_cycle;Signal;HPM_P1;HPM_P2
2021/07/02 00:02:23;;;;;;;6.93;3.42;;;;;;;12.13;87.10;99446.56;2006407;78;21143;-79
2021/07/02 00:05:25;;;;;;;3.86;3.56;;;;;;;12.05;87.17;99445.78;2007468;80;20273;-78
2021/07/02 00:08:28;;;;;;;5.26;3.30;;;;;;;12.01;87.28;99442.31;2006661;80;20246;-78
2021/07/02 00:11:30;;;;;;;4.90;3.50;;;;;;;11.98;87.37;99446.69;2006780;80;20180;-78
2021/07/02 00:14:33;;;;;;;4.47;3.20;;;;;;;11.89;87.47;99441.59;2006180;80;20270;-79
2021/07/02 00:17:35;;;;;;;4.88;3.55;;;;;;;11.87;87.63;99445.94;2005474;78;21488;-78
2021/07/02 00:20:38;;;;;;;5.15;3.49;;;;;;;11.78;87.66;99442.53;2007323;80;20172;-78
2021/07/02 00:23:41;;;;;;;5.41;3.71;;;;;;;11.75;87.79;99449.47;2006940;80;20625;-77
2021/07/02 00:26:43;;;;;;;4.65;3.66;;;;;;;11.72;87.78;99439.97;2006636;80;20181;-78
2021/07/02 00:29:46;;;;;;;6.90;3.56;;;;;;;11.70;87.80;99443.47;2008183;80;20559;-81
2021/07/02 00:32:49;;;;;;;9.64;3.51;;;;;;;11.65;87.68;99440.88;2008875;77;20943;-82
2021/07/02 00:35:52;;;;;;;4.43;3.01;;;;;;;11.60;87.57;99436.59;2008722;80;20517;-80
2021/07/02 00:38:54;;;;;;;8.85;3.15;;;;;;;11.53;87.31;99446.19;2009306;80;20161;-79
2021/07/02 00:41:57;;;;;;;5.34;3.28;;;;;;;11.46;87.51;99445.34;2007329;80;20521;-78
2021/07/02 00:45:00;;;;;;;5.21;3.36;;;;;;;11.41;87.56;99438.47;2007166;80;20169;-79
2021/07/02 00:48:03;;;;;;;6.32;3.46;;;;;;;11.37;87.53;99437.63;2003236;78;24444;-78
2021/07/02 00:51:05;;;;;;;3.75;3.40;;;;;;;11.32;87.73;99433.34;2001757;81;20198;-78
2021/07/02 00:54:10;;;;;;;4.28;3.66;;;;;;;11.31;88.06;99434.19;2001922;81;20692;-77
2021/07/02 00:57:13;;;;;;;4.28;3.84;;;;;;;11.34;88.21;99432.47;2002195;81;20181;-77
2021/07/02 01:00:16;;;;;;;5.57;3.75;;;;;;;11.35;88.37;99436.78;2004906;80;20201;-78
2021/07/02 01:03:18;;;;;;;5.90;3.90;;;;;;;11.33;88.43;99435.94;2006514;80;31829;-77
2021/07/02 01:06:21;;;;;;;4.20;3.83;;;;;;;11.34;88.75;99435.06;2006910;80;20670;-77
2021/07/02 01:09:24;;;;;;;4.93;3.86;;;;;;;11.37;88.96;99434.16;2006397;80;20173;-78
2021/07/02 01:12:27;;;;;;;4.13;3.69;;;;;;;11.40;88.98;99445.41;2007270;80;20250;-78
2021/07/02 01:15:30;;;;;;;7.89;3.80;;;;;;;11.43;89.22;99436.72;2006300;80;20229;-78
2021/07/02 01:18:33;;;;;;;5.34;3.38;;;;;;;11.44;89.24;99438.44;2006402;77;20377;-78
2021/07/02 01:21:35;;;;;;;5.07;3.61;;;;;;;11.47;89.45;99441.00;2005739;80;20712;-77
2021/07/02 01:24:38;;;;;;;4.53;3.97;;;;;;;11.52;89.62;99441.00;2012011;80;20396;-81
2021/07/02 01:27:42;;;;;;;5.15;3.79;;;;;;;11.54;89.61;99439.25;2011315;80;20255;-79
2021/07/02 01:30:45;;;;;;;4.19;3.84;;;;;;;11.51;89.62;99442.75;2011774;80;20219;-80
2021/07/02 01:33:47;;;;;;;4.35;3.42;;;;;;;11.55;89.76;99447.03;2007680;78;24313;-80
2021/07/02 01:36:50;;;;;;;4.57;3.67;;;;;;;11.57;89.67;99440.09;2010984;80;20165;-80
2021/07/02 01:39:53;;;;;;;4.97;3.71;;;;;;;11.61;89.53;99431.38;2009949;80;20198;-80
2021/07/02 01:42:55;;;;;;;4.72;3.63;;;;;;;11.61;89.51;99440.91;2012393;80;20197;-80
2021/07/02 01:45:58;;;;;;;5.56;3.81;;;;;;;11.60;89.45;99437.47;2010506;78;21863;-81
2021/07/02 01:49:01;;;;;;;8.09;3.54;;;;;;;11.61;89.29;99433.13;2014263;80;20202;-84
2021/07/02 01:52:03;;;;;;;7.30;4.07;;;;;;;11.58;88.91;99431.41;2014436;80;20177;-80
2021/07/02 01:55:06;;;;;;;3.58;3.38;;;;;;;11.55;88.93;99431.44;2012793;80;20220;-82
2021/07/02 01:58:09;;;;;;;4.51;3.79;;;;;;;11.52;88.83;99425.41;2010905;80;20161;-80
2021/07/02 02:01:12;;;;;;;4.39;3.75;;;;;;;11.50;88.92;99439.28;2009208;78;24272;-81
2021/07/02 02:04:16;;;;;;;5.94;3.61;;;;;;;11.48;88.83;99429.72;2011713;80;20201;-81
2021/07/02 02:07:18;;;;;;;5.34;3.59;;;;;;;11.42;88.70;99429.78;2011935;80;20230;-80
2021/07/02 02:10:21;;;;;;;5.03;3.90;;;;;;;11.40;88.96;99426.34;2010591;80;20185;-80
2021/07/02 02:13:23;;;;;;;4.22;3.24;;;;;;;11.40;89.02;99436.75;2012075;80;20219;-80
2021/07/02 02:16:26;;;;;;;6.04;3.97;;;;;;;11.39;89.06;99437.63;2011870;78;20659;-81
2021/07/02 02:19:30;;;;;;;9.11;3.54;;;;;;;11.38;89.27;99428.97;2014212;80;20347;-81
2021/07/02 02:22:33;;;;;;;6.91;3.67;;;;;;;11.39;89.11;99427.22;2011754;80;20685;-81
2021/07/02 02:25:36;;;;;;;7.14;3.34;;;;;;;11.37;89.22;99436.78;2012833;80;20311;-81
2021/07/02 02:28:39;;;;;;;8.82;3.45;;;;;;;11.33;89.32;99441.13;2014639;80;20172;-83
2021/07/02 02:31:42;;;;;;;4.88;3.47;;;;;;;11.34;89.27;99444.59;2016604;77;20436;-81
2021/07/02 02:34:45;;;;;;;3.74;3.39;;;;;;;11.27;89.10;99443.75;2013563;80;20233;-81
2021/07/02 02:37:48;;;;;;;4.00;3.36;;;;;;;11.27;88.96;99453.28;2014764;80;20193;-82
2021/07/02 02:40:50;;;;;;;7.99;3.72;;;;;;;11.25;89.05;99455.03;2014667;80;20215;-81
2021/07/02 02:43:54;;;;;;;3.64;3.34;;;;;;;11.23;89.01;99441.19;2013983;80;20224;-81
2021/07/02 02:46:56;;;;;;;4.28;3.51;;;;;;;11.22;88.91;99452.47;2013842;80;20177;-81
2021/07/02 02:49:59;;;;;;;3.56;3.25;;;;;;;11.17;88.76;99450.75;2013489;80;20212;-80
2021/07/02 02:53:02;;;;;;;3.54;3.24;;;;;;;11.11;88.68;99444.72;2013668;80;20746;-80
2021/07/02 02:56:05;;;;;;;3.39;3.06;;;;;;;11.04;88.50;99440.44;2013180;80;20162;-80
2021/07/02 02:59:07;;;;;;;3.04;2.78;;;;;;;10.99;88.42;99447.41;2012870;80;20642;-81
2021/07/02 03:02:10;;;;;;;6.11;3.86;;;;;;;10.94;88.40;99442.19;2011277;78;22043;-81
2021/07/02 03:05:13;;;;;;;6.24;3.15;;;;;;;10.90;88.41;99445.69;2012003;80;20189;-83
2021/07/02 03:08:16;;;;;;;3.29;2.99;;;;;;;10.83;88.43;99450.06;2015360;80;20164;-82
2021/07/02 03:11:21;;;;;;;3.14;2.80;;;;;;;10.79;88.63;99444.91;2012414;80;20169;-81
2021/07/02 03:14:24;;;;;;;4.14;3.14;;;;;;;10.74;88.59;99444.91;2013527;80;20242;-81
2021/07/02 03:17:27;;;;;;;4.86;3.30;;;;;;;10.70;88.63;99442.31;2011691;78;20630;-81
2021/07/02 03:20:35;;;;;;;3.74;3.13;;;;;;;10.68;88.71;99444.06;2013574;80;20217;-81
2021/07/02 03:23:38;;;;;;;3.54;3.22;;;;;;;10.67;88.77;99444.94;2019125;80;20177;-82
2021/07/02 03:26:40;;;;;;;4.49;3.54;;;;;;;10.64;88.78;99453.63;2011579;80;20177;-81
2021/07/02 03:29:43;;;;;;;3.78;3.38;;;;;;;10.62;88.83;99447.56;2009111;80;20185;-80
2021/07/02 03:32:45;;;;;;;6.03;4.00;;;;;;;10.59;88.84;99442.34;2010009;77;20193;-81
2021/07/02 03:35:48;;;;;;;4.89;3.69;;;;;;;10.61;89.10;99452.75;2014350;80;20196;-84
2021/07/02 03:38:51;;;;;;;4.24;3.28;;;;;;;10.65;89.29;99447.56;2014838;80;20186;-81
2021/07/02 03:41:53;;;;;;;5.71;3.33;;;;;;;10.67;89.24;99455.34;2014100;80;20222;-81
2021/07/02 03:44:57;;;;;;;3.79;3.04;;;;;;;10.71;89.42;99452.72;2015676;80;20185;-81
2021/07/02 03:48:00;;;;;;;3.11;2.89;;;;;;;10.78;89.40;99461.34;2013078;78;22215;-84
2021/07/02 03:51:02;;;;;;;4.19;3.55;;;;;;;10.79;89.40;99458.75;2011799;80;20205;-80
2021/07/02 03:54:05;;;;;;;5.57;3.61;;;;;;;10.81;89.48;99458.75;2009715;80;20986;-80
2021/07/02 03:57:10;;;;;;;5.66;3.67;;;;;;;10.84;89.51;99469.13;2011777;80;20219;-81
2021/07/02 04:00:14;;;;;;;4.54;3.42;;;;;;;10.83;89.36;99463.06;2013810;80;20214;-81
2021/07/02 04:03:16;;;;;;;3.85;3.55;;;;;;;10.83;89.52;99468.25;2011607;78;21805;-80
2021/07/02 04:06:19;;;;;;;6.20;3.35;;;;;;;10.84;89.48;99469.13;2009761;80;20173;-80
2021/07/02 04:09:21;;;;;;;3.67;3.36;;;;;;;10.86;89.51;99465.63;2011911;80;20181;-81
2021/07/02 04:12:32;;;;;;;4.51;3.55;;;;;;;10.89;89.49;99469.94;2016400;80;20195;-81
2021/07/02 04:15:35;;;;;;;4.81;3.97;;;;;;;10.94;89.42;99478.56;2015642;78;20725;-83
2021/07/02 04:18:37;;;;;;;4.72;3.95;;;;;;;10.97;89.26;99470.78;2010521;80;20185;-79
2021/07/02 04:21:40;;;;;;;7.24;3.99;;;;;;;11.00;89.25;99472.50;2007195;80;20744;-78
2021/07/02 04:24:43;;;;;;;4.86;3.36;;;;;;;11.03;89.21;99472.50;2006947;80;20702;-78
2021/07/02 04:27:46;;;;;;;5.95;3.30;;;;;;;11.07;89.18;99472.47;2007771;80;20284;-78
2021/07/02 04:30:49;;;;;;;4.97;3.89;;;;;;;11.15;89.17;99477.63;2007156;78;38248;-78
2021/07/02 04:33:52;;;;;;;4.00;3.41;;;;;;;11.19;89.21;99482.78;2007900;80;20737;-78
2021/07/02 04:36:54;;;;;;;3.38;3.08;;;;;;;11.27;88.90;99487.06;2006699;80;20204;-78
2021/07/02 04:39:57;;;;;;;7.85;3.41;;;;;;;11.28;88.57;99481.88;2007520;80;20205;-77
2021/07/02 04:43:00;;;;;;;4.26;3.29;;;;;;;11.23;88.28;99480.19;2007214;80;20173;-78
2021/07/02 04:46:03;;;;;;;5.19;4.05;;;;;;;11.19;88.29;99484.53;2007156;78;22159;-78
2021/07/02 04:49:16;;;;;;;7.10;3.53;;;;;;;11.15;88.18;99480.22;2007291;80;20189;-79
2021/07/02 04:52:18;;;;;;;4.95;4.30;;;;;;;11.10;88.11;99479.38;2008019;80;20181;-78
2021/07/02 04:55:21;;;;;;;6.06;3.71;;;;;;;11.06;88.14;99477.66;2007210;80;20206;-78
2021/07/02 04:58:24;;;;;;;4.51;3.72;;;;;;;11.05;88.08;99481.13;2007852;80;20627;-78
2021/07/02 05:01:26;;;;;;;11.43;3.99;;;;;;;11.06;88.12;99483.72;2005664;80;20632;-78
2021/07/02 05:04:29;;;;;;;5.03;4.11;;;;;;;11.18;88.47;99473.28;2006361;80;20314;-78
2021/07/02 05:07:32;;;;;;;3.71;3.41;;;;;;;11.40;88.68;99473.13;2007340;80;20188;-79
2021/07/02 05:10:36;;;;;;;6.39;3.84;;;;;;;11.62;88.58;99474.72;2006611;80;20550;-78
2021/07/02 05:13:39;;;;;;;4.51;4.11;;;;;;;11.87;88.38;99478.03;2008254;80;20209;-78
2021/07/02 05:16:42;;;;;;;5.24;3.47;;;;;;;12.16;88.01;99482.09;2007321;77;21303;-79
2021/07/02 05:19:44;;;;;;;4.15;3.21;;;;;;;12.47;87.49;99483.53;2007659;80;20181;-78
2021/07/02 05:22:47;;;;;;;6.16;3.26;;;;;;;12.82;86.33;99483.13;2007568;80;20324;-78
2021/07/02 05:25:50;;;;;;;3.86;3.50;;;;;;;13.22;85.38;99490.47;2008133;80;20245;-78
2021/07/02 05:28:53;;;;;;;4.46;4.05;;;;;;;13.66;84.04;99492.47;2007750;80;20165;-79
2021/07/02 05:31:55;;;;;;;4.90;3.47;;;;;;;14.10;82.46;99493.47;2006868;78;21927;-79
2021/07/02 05:34:58;;;;;;;4.11;3.56;;;;;;;14.57;80.51;99491.81;2011390;80;20737;-79
2021/07/02 05:38:00;;;;;;;3.86;3.25;;;;;;;15.00;78.67;99490.06;2008192;80;20202;-79
2021/07/02 05:41:03;;;;;;;3.96;3.47;;;;;;;15.48;76.99;99484.66;2007722;80;20201;-79
2021/07/02 05:44:06;;;;;;;4.38;3.24;;;;;;;15.93;75.43;99480.09;2008516;80;20769;-79
2021/07/02 05:47:08;;;;;;;4.56;3.94;;;;;;;16.36;73.82;99479.03;2006570;78;23400;-80
2021/07/02 05:50:12;;;;;;;4.06;3.76;;;;;;;16.68;72.27;99479.94;2008238;80;20649;-79
2021/07/02 05:53:16;;;;;;;4.05;3.72;;;;;;;16.67;71.83;99476.44;2008575;80;20571;-79
2021/07/02 05:56:20;;;;;;;4.07;3.69;;;;;;;16.77;71.83;99485.78;2008108;80;20177;-80
2021/07/02 05:59:23;;;;;;;4.64;4.07;;;;;;;17.06;71.08;99489.34;2008711;80;20201;-79
2021/07/02 06:02:25;;;;;;;5.86;4.40;;;;;;;17.31;70.24;99499.97;2008175;78;22108;-79
2021/07/02 06:05:28;;;;;;;4.04;3.58;;;;;;;17.58;70.03;99496.47;2009096;80;20177;-79
2021/07/02 06:08:31;;;;;;;5.29;3.92;;;;;;;17.97;68.75;99494.41;2008521;80;20205;-80
2021/07/02 06:11:33;;;;;;;4.03;3.72;;;;;;;18.16;67.85;99501.69;2012290;80;20181;-78
2021/07/02 06:14:36;;;;;;;6.07;3.56;;;;;;;18.48;66.97;99498.78;2009103;80;20899;-77
2021/07/02 06:17:40;;;;;;;3.95;3.64;;;;;;;18.74;66.84;99502.31;2007072;78;24379;-79
2021/07/02 06:20:43;;;;;;;4.89;3.64;;;;;;;19.03;65.99;99504.75;2008431;80;20165;-79
2021/07/02 06:23:46;;;;;;;7.31;3.95;;;;;;;19.35;64.88;99497.41;2006750;80;20184;-80
2021/07/02 06:26:49;;;;;;;5.29;3.76;;;;;;;19.35;64.61;99494.78;2008659;80;20746;-79
2021/07/02 06:29:51;;;;;;;6.64;4.34;;;;;;;19.29;63.94;99495.88;2009273;80;20754;-79
2021/07/02 06:32:54;;;;;;;6.15;4.38;;;;;;;19.12;65.04;99499.13;2007202;77;22254;-79
2021/07/02 06:35:57;;;;;;;5.78;4.63;;;;;;;19.30;63.93;99490.53;2008359;80;20205;-80
2021/07/02 06:39:01;;;;;;;4.75;4.35;;;;;;;19.51;61.36;99485.34;2008152;80;20242;-79
2021/07/02 06:42:04;;;;;;;4.31;3.92;;;;;;;19.79;59.69;99498.34;2007270;80;20161;-79
2021/07/02 06:45:07;;;;;;;6.50;3.92;;;;;;;19.76;59.93;99498.47;2007913;80;20204;-79
2021/07/02 06:48:10;;;;;;;5.34;4.21;;;;;;;19.75;57.67;99491.44;2008464;79;26302;-79
2021/07/02 06:51:13;;;;;;;5.16;4.56;;;;;;;19.58;57.26;99498.28;2008637;80;20865;-78
2021/07/02 06:54:15;;;;;;;5.63;4.15;;;;;;;19.54;58.89;99498.44;2008782;80;20177;-79
2021/07/02 06:57:18;;;;;;;10.06;3.99;;;;;;;19.46;61.35;99503.97;2008718;80;20718;-79
2021/07/02 07:00:22;;;;;;;11.21;4.65;;;;;;;19.39;62.87;99504.25;2008857;78;20197;-79
2021/07/02 07:03:24;;;;;;;5.50;3.83;;;;;;;19.10;63.19;99506.25;2007960;80;20266;-79
2021/07/02 07:06:27;;;;;;;5.90;4.41;;;;;;;18.84;63.38;99507.19;2008341;80;20570;-79
2021/07/02 07:09:30;;;;;;;6.20;4.20;;;;;;;18.58;64.90;99501.97;2007147;80;20673;-79
2021/07/02 07:12:33;;;;;;;4.93;4.30;;;;;;;18.34;64.68;99515.06;2006985;80;20777;-79
2021/07/02 07:15:36;;;;;;;7.84;4.56;;;;;;;18.15;64.70;99511.34;2005295;77;27211;-79
2021/07/02 07:18:39;;;;;;;6.99;4.45;;;;;;;18.07;65.42;99516.84;2006769;80;20242;-79
2021/07/02 07:21:44;;;;;;;6.14;4.11;;;;;;;18.09;66.19;99517.63;2006712;80;20185;-79
2021/07/02 07:24:47;;;;;;;5.41;4.46;;;;;;;18.20;66.47;99517.28;2006907;80;20742;-79
2021/07/02 07:27:49;;;;;;;6.93;4.21;;;;;;;18.37;65.84;99529.88;2006701;80;20242;-79
2021/07/02 07:30:53;;;;;;;6.94;4.26;;;;;;;18.49;65.26;99536.47;2008059;78;24609;-79
2021/07/02 07:33:57;;;;;;;7.56;4.35;;;;;;;18.53;65.39;99532.84;2008623;80;20193;-78
2021/07/02 07:37:05;;;;;;;6.45;4.05;;;;;;;18.60;64.73;99536.97;2008681;80;20191;-78
2021/07/02 07:40:08;;;;;;;6.15;3.99;;;;;;;18.68;64.55;99538.47;2007673;80;20195;-78
2021/07/02 07:43:11;;;;;;;8.18;4.40;;;;;;;18.92;64.03;99541.13;2009713;80;20256;-78
2021/07/02 07:46:13;;;;;;;5.53;4.00;;;;;;;19.16;61.83;99534.97;2007756;78;22588;-77
2021/07/02 07:49:16;;;;;;;5.25;4.18;;;;;;;19.25;60.21;99536.41;2010631;80;20289;-79
2021/07/02 07:52:25;;;;;;;4.15;3.72;;;;;;;19.17;59.53;99528.78;2011570;80;20181;-77
2021/07/02 07:55:31;;;;;;;4.72;3.97;;;;;;;19.11;59.82;99536.91;2007283;80;20272;-77
2021/07/02 07:58:33;;;;;;;6.45;3.89;;;;;;;18.98;59.96;99533.84;2009266;80;20246;-77
2021/07/02 08:01:36;;;;;;;4.93;4.29;;;;;;;18.91;60.35;99536.78;2006549;78;21759;-77
2021/07/02 08:04:39;;;;;;;5.36;4.38;;;;;;;18.92;60.88;99535.88;2006618;80;20285;-76
2021/07/02 08:07:43;;;;;;;5.94;4.11;;;;;;;18.95;60.42;99533.97;2007589;80;20230;-76
2021/07/02 08:10:46;;;;;;;5.60;3.99;;;;;;;19.00;60.04;99537.28;2007419;80;20185;-77
2021/07/02 08:13:48;;;;;;;5.88;3.53;;;;;;;19.04;60.43;99534.56;2007748;80;20246;-77
2021/07/02 08:16:51;;;;;;;7.66;4.06;;;;;;;19.12;61.01;99532.50;2007098;78;20318;-77
2021/07/02 08:19:55;;;;;;;4.14;3.54;;;;;;;19.28;60.26;99534.50;2008180;80;20261;-77
2021/07/02 08:22:58;;;;;;;4.84;3.79;;;;;;;19.38;59.31;99536.78;2007707;80;20208;-77
2021/07/02 08:26:01;;;;;;;8.52;4.69;;;;;;;19.52;58.94;99539.75;2007901;80;20301;-77
2021/07/02 08:29:22;;;;;;;4.79;4.30;;;;;;;19.56;58.87;99539.59;2008948;80;20169;-77
2021/07/02 08:32:28;;;;;;;6.89;4.34;;;;;;;19.60;57.86;99535.09;2008292;78;22792;-77
2021/07/02 08:35:31;;;;;;;5.01;4.40;;;;;;;19.85;58.81;99543.75;2008422;80;20196;-77
2021/07/02 08:38:34;;;;;;;5.66;4.19;;;;;;;20.22;58.94;99545.75;2009276;80;20242;-78
2021/07/02 08:41:38;;;;;;;4.57;4.15;;;;;;;20.37;56.67;99551.31;2009699;80;20274;-78
2021/07/02 08:44:41;;;;;;;5.99;4.31;;;;;;;20.26;57.83;99554.38;2010221;80;20208;-79
2021/07/02 08:47:44;;;;;;;4.66;4.01;;;;;;;20.13;58.51;99561.09;2009027;78;24664;-80
2021/07/02 08:50:51;;;;;;;4.50;4.18;;;;;;;19.94;59.08;99566.25;2009332;80;20193;-78
2021/07/02 08:53:54;;;;;;;7.18;4.35;;;;;;;19.79;58.07;99575.63;2010283;80;20195;-79
2021/07/02 08:56:58;;;;;;;6.04;4.82;;;;;;;19.73;58.00;99569.69;2008852;80;20210;-79
2021/07/02 09:00:01;;;;;;;5.82;4.21;;;;;;;19.65;57.84;99577.91;2010323;80;20282;-79
2021/07/02 09:03:36;;;;;;;7.71;4.09;;;;;;;19.66;59.07;99579.63;2013568;78;21587;-84
2021/07/02 09:06:41;;;;;;;7.43;4.44;;;;;;;19.67;59.23;99586.63;2015858;80;20226;-79
2021/07/02 09:09:59;;;;;;;9.38;4.30;;;;;;;19.73;58.67;99583.75;2013594;80;20173;-80
2021/07/02 09:13:03;;;;;;;4.69;4.13;;;;;;;19.93;58.52;99583.00;2012483;80;20719;-80
2021/07/02 09:16:23;;;;;;;4.76;4.07;;;;;;;20.21;58.05;99580.94;1993772;80;1811485;-81
2021/07/02 09:19:28;;;;;;;4.24;3.85;;;;;;;20.41;56.18;99579.28;2012857;80;20283;-81
2021/07/02 09:22:49;;;;;;;4.71;3.86;;;;;;;20.57;56.38;99576.88;2014955;80;20223;-81
2021/07/02 09:25:54;;;;;;;6.71;4.65;;;;;;;20.87;55.56;99578.22;2012362;80;20358;-80
2021/07/02 09:29:32;;;;;;;4.49;3.74;;;;;;;21.21;53.36;99577.59;2011010;80;20272;-79
2021/07/02 09:32:40;;;;;;;4.95;3.89;;;;;;;21.61;52.78;99579.28;1990910;79;24309;-81
2021/07/02 09:35:49;;;;;;;4.78;4.20;;;;;;;21.89;52.94;99577.97;2013092;80;20327;-80
2021/07/02 09:38:52;;;;;;;4.68;4.28;;;;;;;22.15;51.54;99577.63;2011043;80;20234;-79
2021/07/02 09:41:55;;;;;;;3.80;3.50;;;;;;;22.45;51.66;99580.56;2011660;80;20173;-80
2021/07/02 09:45:17;;;;;;;4.18;3.88;;;;;;;22.64;50.12;99575.19;2009495;80;20189;-80
2021/07/02 09:48:22;;;;;;;7.22;4.32;;;;;;;22.75;49.24;99582.56;2005742;78;33351;-80
2021/07/02 09:51:28;;;;;;;4.60;4.18;;;;;;;22.70;47.97;99584.59;2006267;81;20186;-80
2021/07/02 09:54:30;;;;;;;8.68;4.32;;;;;;;22.80;47.45;99589.34;2008536;81;20252;-80
2021/07/02 09:58:05;;;;;;;4.88;3.97;;;;;;;22.86;49.27;99585.56;2008282;81;20213;-80
2021/07/02 10:01:10;;;;;;;5.26;4.18;;;;;;;22.78;48.04;99585.06;2007222;78;21079;-80
2021/07/02 10:04:13;;;;;;;4.13;3.65;;;;;;;22.59;47.83;99586.00;2011354;80;20206;-80
2021/07/02 10:07:15;;;;;;;10.35;4.35;;;;;;;22.37;48.92;99587.16;2010440;80;20349;-80
2021/07/02 10:10:18;;;;;;;5.97;3.60;;;;;;;22.05;50.02;99586.06;2011325;80;20199;-80
2021/07/02 10:13:23;;;;;;;4.14;3.80;;;;;;;22.02;52.39;99587.03;2011207;80;20216;-80
2021/07/02 10:16:27;;;;;;;4.90;3.97;;;;;;;22.12;50.86;99580.41;2011731;78;87934;-80
2021/07/02 10:19:30;;;;;;;4.89;4.24;;;;;;;22.22;50.28;99579.03;2012179;80;20173;-80
2021/07/02 10:22:34;;;;;;;4.51;3.80;;;;;;;22.44;50.11;99577.97;2012626;80;20613;-80
2021/07/02 10:25:40;;;;;;;4.43;3.81;;;;;;;22.74;50.51;99579.06;2013651;80;20169;-80
2021/07/02 10:28:44;;;;;;;4.40;4.10;;;;;;;23.02;51.21;99575.03;2014289;80;20232;-81
2021/07/02 10:31:54;;;;;;;4.18;3.79;;;;;;;23.36;48.11;99574.09;2015085;78;53965;-80
2021/07/02 10:34:57;;;;;;;3.79;3.49;;;;;;;23.63;47.97;99569.97;2013843;80;20205;-79
2021/07/02 10:38:00;;;;;;;4.10;3.70;;;;;;;23.99;48.18;99564.41;2013815;80;20271;-82
2021/07/02 10:41:08;;;;;;;3.99;3.58;;;;;;;24.08;46.82;99558.59;2013968;80;20181;-80
2021/07/02 10:44:12;;;;;;;4.13;3.77;;;;;;;24.47;48.24;99557.25;2013396;80;20165;-80
2021/07/02 10:47:16;;;;;;;6.35;4.18;;;;;;;24.69;47.03;99559.47;2014046;78;24154;-80
2021/07/02 10:50:52;;;;;;;3.85;3.49;;;;;;;24.66;45.22;99557.00;2016172;80;20320;-81
2021/07/02 10:53:57;;;;;;;5.78;3.71;;;;;;;24.94;45.90;99553.53;2018388;80;20185;-81
2021/07/02 10:57:03;;;;;;;5.56;4.25;;;;;;;25.23;45.87;99560.63;2015067;80;20181;-80
2021/07/02 11:00:07;;;;;;;4.04;3.69;;;;;;;25.24;44.24;99554.34;2013719;80;20204;-80
2021/07/02 11:03:20;;;;;;;4.60;4.10;;;;;;;24.49;44.69;99555.34;2017536;80;20173;-82
2021/07/02 11:06:41;;;;;;;5.57;3.79;;;;;;;24.20;45.46;99556.16;2023770;80;20237;-86
2021/07/02 11:09:50;;;;;;;4.68;4.04;;;;;;;24.34;47.23;99556.25;2014042;80;20337;-78
2021/07/02 11:12:56;;;;;;;4.45;3.59;;;;;;;24.43;45.24;99558.38;2009794;80;20169;-80
2021/07/02 11:16:04;;;;;;;6.78;3.80;;;;;;;24.54;45.47;99555.94;2012998;80;20272;-81
2021/07/02 11:19:26;;;;;;;4.30;3.39;;;;;;;24.82;44.50;99557.81;2010230;80;20195;-79
2021/07/02 11:22:29;;;;;;;3.72;3.35;;;;;;;24.57;44.35;99554.88;2016455;80;20669;-79
2021/07/02 11:25:54;;;;;;;3.59;3.30;;;;;;;24.56;45.63;99550.53;2011529;80;21087;-79
2021/07/02 11:28:58;;;;;;;4.35;3.56;;;;;;;24.41;43.44;99550.47;2010812;80;20254;-79
2021/07/02 11:32:00;;;;;;;3.99;3.28;;;;;;;24.33;43.16;99551.88;2009675;80;20197;-79
2021/07/02 11:35:35;;;;;;;3.58;3.28;;;;;;;24.41;43.72;99537.19;2012633;80;20248;-80
2021/07/02 11:38:49;;;;;;;3.44;3.24;;;;;;;24.35;45.25;99537.56;2001482;80;20242;-80
2021/07/02 11:42:06;;;;;;;3.94;3.60;;;;;;;24.00;44.49;99536.94;2012440;80;20210;-79
2021/07/02 11:45:09;;;;;;;4.00;3.64;;;;;;;23.61;46.48;99534.72;2009569;80;20628;-79
2021/07/02 11:48:21;;;;;;;3.44;3.14;;;;;;;23.32;47.55;99543.38;2010840;78;20897;-79
2021/07/02 11:51:29;;;;;;;5.63;3.69;;;;;;;23.16;48.28;99536.28;2013419;80;20817;-79
2021/07/02 11:54:32;;;;;;;4.50;3.34;;;;;;;23.07;48.00;99538.56;2010100;80;20207;-79
2021/07/02 11:57:35;;;;;;;6.04;3.63;;;;;;;23.30;50.12;99530.22;2009498;80;20310;-79
2021/07/02 12:00:37;;;;;;;4.54;3.58;;;;;;;23.67;47.42;99521.13;2008977;78;21926;-79
2021/07/02 12:04:11;;;;;;;3.50;3.28;;;;;;;23.75;47.62;99521.56;2009893;80;20173;-79
2021/07/02 12:07:14;;;;;;;6.18;3.90;;;;;;;23.84;48.07;99521.97;2007269;80;20185;-79
2021/07/02 12:10:16;;;;;;;3.88;3.53;;;;;;;23.80;48.15;99516.84;2010592;80;20305;-80
2021/07/02 12:13:21;;;;;;;3.58;2.88;;;;;;;24.09;49.77;99515.19;2012050;80;20227;-79
2021/07/02 12:16:28;;;;;;;3.94;3.63;;;;;;;24.42;48.94;99511.53;2011038;78;21892;-79
2021/07/02 12:19:37;;;;;;;3.60;3.10;;;;;;;24.46;46.68;99499.78;2011511;80;20294;-79
2021/07/02 12:22:40;;;;;;;4.90;3.14;;;;;;;24.63;46.45;99509.41;2009949;80;20246;-79
2021/07/02 12:25:44;;;;;;;7.47;3.35;;;;;;;24.84;46.89;99499.28;2011467;80;20213;-79
2021/07/02 12:28:57;;;;;;;4.09;3.65;;;;;;;24.82;44.69;99499.38;2012259;80;20173;-78
2021/07/02 12:32:06;;;;;;;5.39;3.01;;;;;;;24.67;43.96;99494.97;2009380;80;20189;-79
2021/07/02 12:35:10;;;;;;;3.60;3.05;;;;;;;24.39;44.27;99493.97;2007587;80;20210;-79
2021/07/02 12:38:15;;;;;;;5.07;3.72;;;;;;;24.30;45.48;99494.53;2011319;80;20246;-80
2021/07/02 12:41:17;;;;;;;4.03;3.63;;;;;;;24.28;45.91;99490.22;2011193;80;20200;-79
2021/07/02 12:44:23;;;;;;;5.90;3.59;;;;;;;24.15;45.97;99489.22;2012004;80;20280;-79
2021/07/02 12:47:30;;;;;;;3.28;2.97;;;;;;;24.09;47.94;99495.75;2009811;78;20214;-79
2021/07/02 12:50:38;;;;;;;4.74;3.20;;;;;;;23.91;48.09;99484.41;2011083;80;20226;-79
2021/07/02 12:57:01;;;;;;;3.41;3.11;;;;;;;23.60;48.99;99490.59;2010956;80;20282;-79
2021/07/02 13:00:15;;;;;;;3.74;3.38;;;;;;;23.65;50.67;99490.34;2009333;80;20258;-79
2021/07/02 13:03:19;;;;;;;4.79;3.26;;;;;;;24.13;49.25;99485.81;2011694;80;20234;-80
2021/07/02 13:06:25;;;;;;;4.80;3.19;;;;;;;24.60;46.38;99483.03;2016156;80;20185;-81
2021/07/02 13:09:27;;;;;;;5.50;3.46;;;;;;;25.26;46.69;99472.69;2016733;80;20170;-81
2021/07/02 13:12:33;;;;;;;3.00;2.80;;;;;;;25.73;43.42;99483.94;2020015;80;20238;-82
2021/07/02 13:15:49;;;;;;;4.47;2.66;;;;;;;26.01;44.90;99485.63;2016691;78;20881;-81
2021/07/02 13:18:54;;;;;;;3.00;2.63;;;;;;;26.23;43.04;99490.38;2014114;80;20165;-83
2021/07/02 13:22:16;;;;;;;3.11;2.59;;;;;;;26.31;43.35;99488.03;2015161;80;20262;-80
2021/07/02 13:25:19;;;;;;;2.56;2.31;;;;;;;26.49;44.09;99489.50;2018198;80;20173;-83
2021/07/02 13:28:43;;;;;;;2.85;2.70;;;;;;;26.73;43.19;99477.13;2012965;80;20202;-82
2021/07/02 13:31:53;;;;;;;4.59;2.65;;;;;;;26.68;39.80;99478.41;2015147;80;20177;-81
2021/07/02 13:34:59;;;;;;;3.03;2.80;;;;;;;26.68;40.93;99479.28;2014285;80;20755;-82
2021/07/02 13:38:11;;;;;;;3.59;2.60;;;;;;;26.55;40.23;99475.75;2013512;80;20242;-82
2021/07/02 13:41:20;;;;;;;2.60;2.40;;;;;;;26.06;42.02;99491.50;2015055;80;20197;-81
2021/07/02 13:44:29;;;;;;;3.13;2.83;;;;;;;26.06;41.96;99486.19;2016895;80;20246;-82
2021/07/02 13:47:33;;;;;;;2.81;2.63;;;;;;;25.90;42.70;99484.53;2016357;78;22584;-82
2021/07/02 13:50:38;;;;;;;4.00;3.30;;;;;;;25.78;43.69;99482.66;2014916;80;20308;-81
2021/07/02 13:53:40;;;;;;;3.63;3.15;;;;;;;25.32;42.63;99478.59;2018852;80;20169;-81
2021/07/02 13:56:49;;;;;;;2.89;2.66;;;;;;;25.05;43.73;99474.06;2016752;80;20823;-82
2021/07/02 13:59:54;;;;;;;4.63;3.15;;;;;;;25.19;45.33;99467.88;2018116;80;20246;-81
2021/07/02 14:02:57;;;;;;;4.18;2.81;;;;;;;25.63;44.70;99466.81;2009088;80;976197;-82
2021/07/02 14:06:00;;;;;;;2.60;2.38;;;;;;;25.88;44.57;99470.47;2016907;80;20193;-81
2021/07/02 14:09:03;;;;;;;3.20;2.46;;;;;;;26.29;44.81;99466.00;2018099;80;20703;-82
2021/07/02 14:12:06;;;;;;;3.60;2.70;;;;;;;26.58;43.24;99464.06;2011645;80;20669;-82
2021/07/02 14:15:09;;;;;;;3.95;2.97;;;;;;;26.83;42.83;99469.38;2016334;80;20267;-82
2021/07/02 14:18:12;;;;;;;3.25;3.05;;;;;;;26.92;42.00;99473.19;2010587;77;22512;-80
2021/07/02 14:21:14;;;;;;;4.45;2.85;;;;;;;26.70;41.10;99464.03;2013524;80;20173;-84
2021/07/02 14:24:17;;;;;;;4.55;2.81;;;;;;;26.58;41.81;99469.38;2013344;80;20173;-82
2021/07/02 14:27:20;;;;;;;3.44;2.47;;;;;;;26.61;41.24;99466.50;2010978;80;20221;-81
2021/07/02 14:30:34;;;;;;;2.76;2.40;;;;;;;26.69;42.37;99470.31;2013986;77;22595;-83
2021/07/02 14:33:37;;;;;;;3.34;2.83;;;;;;;26.90;42.00;99465.28;2010099;80;20383;-83
2021/07/02 14:36:40;;;;;;;5.29;2.80;;;;;;;27.14;41.57;99456.56;2007389;80;20747;-83